createdAt,value
2019-05-12T00:00:50.946Z,7.50
2019-05-12T00:03:37.805Z,7.50
2019-05-12T00:06:23.141Z,7.40
2019-05-12T00:09:08.492Z,7.40
2019-05-12T00:11:53.495Z,7.40
2019-05-12T00:14:38.379Z,7.40
2019-05-12T00:17:23.348Z,7.40
2019-05-12T00:20:08.733Z,7.40
2019-05-12T00:22:58.020Z,7.40
2019-05-12T00:25:42.776Z,7.30
2019-05-12T00:28:28.388Z,7.30
2019-05-12T00:31:13.726Z,7.30
2019-05-12T00:33:58.770Z,7.30
2019-05-12T00:36:43.747Z,7.20
2019-05-12T00:39:28.787Z,7.20
2019-05-12T00:42:13.669Z,7.10
2019-05-12T00:44:58.791Z,7.10
2019-05-12T00:47:43.649Z,7.10
2019-05-12T00:50:29.122Z,7.10
2019-05-12T00:53:13.962Z,7.00
2019-05-12T00:55:58.802Z,7.00
2019-05-12T00:58:43.637Z,7.00
2019-05-12T01:01:28.686Z,6.90
2019-05-12T01:04:13.825Z,6.90
2019-05-12T01:06:58.734Z,6.90
2019-05-12T01:09:43.793Z,6.80
2019-05-12T01:12:28.657Z,6.80
2019-05-12T01:15:13.308Z,6.70
2019-05-12T01:17:58.582Z,6.70
2019-05-12T01:20:43.772Z,6.70
2019-05-12T01:23:28.677Z,6.60
2019-05-12T01:26:13.712Z,6.60
2019-05-12T01:28:58.618Z,6.60
2019-05-12T01:31:48.491Z,6.60
2019-05-12T01:34:32.966Z,6.50
2019-05-12T01:37:23.667Z,6.50
2019-05-12T01:40:10.542Z,6.50
2019-05-12T01:42:58.290Z,6.50
2019-05-12T01:45:42.216Z,6.40
2019-05-12T01:48:28.691Z,6.40
2019-05-12T01:51:13.742Z,6.30
2019-05-12T01:54:15.014Z,6.30
2019-05-12T01:56:58.728Z,6.40
2019-05-12T01:59:43.759Z,6.20
2019-05-12T02:02:28.687Z,6.20
2019-05-12T02:05:13.330Z,6.20
2019-05-12T02:07:58.522Z,6.20
2019-05-12T02:10:43.407Z,6.10
2019-05-12T02:13:27.886Z,6.10
2019-05-12T02:16:12.480Z,6.10
2019-05-12T02:18:58.315Z,6.00
2019-05-12T02:21:43.109Z,6.00
2019-05-12T02:24:30.553Z,6.00
2019-05-12T02:27:15.137Z,6.00
2019-05-12T02:30:00.003Z,6.00
2019-05-12T02:32:53.152Z,5.90
2019-05-12T02:35:35.249Z,5.90
2019-05-12T02:38:18.649Z,5.90
2019-05-12T02:41:04.663Z,5.80
2019-05-12T02:43:49.915Z,5.80
2019-05-12T02:46:35.174Z,5.70
2019-05-12T02:49:20.504Z,5.70
2019-05-12T02:52:05.297Z,5.70
2019-05-12T02:54:55.573Z,5.70
2019-05-12T02:57:38.397Z,5.70
2019-05-12T03:00:24.223Z,5.60
2019-05-12T03:03:14.412Z,5.60
2019-05-12T03:05:59.080Z,5.60
2019-05-12T03:08:44.907Z,5.60
2019-05-12T03:11:31.046Z,5.50
2019-05-12T03:14:16.110Z,5.50
2019-05-12T03:17:04.568Z,5.50
2019-05-12T03:19:48.091Z,5.50
2019-05-12T03:22:35.385Z,5.50
2019-05-12T03:25:24.478Z,5.50
2019-05-12T03:28:08.680Z,5.40
2019-05-12T03:30:57.573Z,5.50
2019-05-12T03:33:43.406Z,5.60
2019-05-12T03:36:34.609Z,5.60
2019-05-12T03:39:15.296Z,5.70
2019-05-12T03:42:00.154Z,5.70
2019-05-12T03:44:44.905Z,5.80
2019-05-12T03:47:29.942Z,5.80
2019-05-12T03:50:15.089Z,5.90
2019-05-12T03:53:04.539Z,5.90
2019-05-12T03:55:47.468Z,5.90
2019-05-12T03:58:34.720Z,5.90
2019-05-12T04:01:19.493Z,5.90
2019-05-12T04:04:05.242Z,5.90
2019-05-12T04:06:50.364Z,5.90
2019-05-12T04:09:35.052Z,6.00
2019-05-12T04:12:19.900Z,6.00
2019-05-12T04:15:05.497Z,6.10
2019-05-12T04:17:50.579Z,6.10
2019-05-12T04:20:36.453Z,6.20
2019-05-12T04:23:24.509Z,6.30
2019-05-12T04:26:12.279Z,6.30
2019-05-12T04:28:55.061Z,6.30
2019-05-12T04:31:40.096Z,6.30
2019-05-12T04:34:25.244Z,6.30
2019-05-12T04:37:10.333Z,6.30
2019-05-12T04:39:55.523Z,6.30
2019-05-12T04:42:40.567Z,6.30
2019-05-12T04:45:25.871Z,6.30
2019-05-12T04:48:10.930Z,6.40
2019-05-12T04:50:55.787Z,6.40
2019-05-12T04:53:40.773Z,6.40
2019-05-12T04:56:25.601Z,6.50
2019-05-12T04:59:10.657Z,6.50
2019-05-12T05:01:55.472Z,6.60
2019-05-12T05:04:40.326Z,6.70
2019-05-12T05:07:25.016Z,6.70
2019-05-12T05:10:10.085Z,6.80
2019-05-12T05:12:55.356Z,6.80
2019-05-12T05:15:39.961Z,6.80
2019-05-12T05:18:25.030Z,6.90
2019-05-12T05:21:09.734Z,6.90
2019-05-12T05:23:54.487Z,6.90
2019-05-12T05:26:39.238Z,6.90
2019-05-12T05:29:24.138Z,6.90
2019-05-12T05:32:09.220Z,6.90
2019-05-12T05:34:57.832Z,6.90
2019-05-12T05:37:43.570Z,7.00
2019-05-12T05:40:30.311Z,7.00
2019-05-12T05:43:18.570Z,7.00
2019-05-12T05:46:05.502Z,7.10
2019-05-12T05:48:48.616Z,7.20
2019-05-12T05:51:33.685Z,7.30
2019-05-12T05:54:25.155Z,7.40
2019-05-12T05:57:06.280Z,7.50
2019-05-12T05:59:53.718Z,7.60
2019-05-12T06:02:40.438Z,7.70
2019-05-12T06:05:29.223Z,7.80
2019-05-12T06:08:18.641Z,8.00
2019-05-12T06:10:58.240Z,8.10
2019-05-12T06:13:44.284Z,8.20
2019-05-12T06:16:29.553Z,8.30
2019-05-12T06:19:14.391Z,8.50
2019-05-12T06:21:59.386Z,8.60
2019-05-12T06:24:44.284Z,8.80
2019-05-12T06:27:32.682Z,9.00
2019-05-12T06:30:16.566Z,9.00
2019-05-12T06:33:04.081Z,9.00
2019-05-12T06:35:48.556Z,9.10
2019-05-12T06:38:37.136Z,9.20
2019-05-12T06:41:21.273Z,9.20
2019-05-12T06:44:08.708Z,9.30
2019-05-12T06:47:02.227Z,9.30
2019-05-12T06:49:40.996Z,9.40
2019-05-12T06:52:25.958Z,9.60
2019-05-12T06:55:10.814Z,9.70
2019-05-12T06:57:55.519Z,9.80
2019-05-12T07:00:40.243Z,9.90
2019-05-12T07:03:30.351Z,9.80
2019-05-12T07:06:17.531Z,9.70
2019-05-12T07:09:08.577Z,9.70
2019-05-12T07:11:53.554Z,9.70
2019-05-12T07:14:34.588Z,9.70
2019-05-12T07:17:27.470Z,9.70
2019-05-12T07:20:14.571Z,9.70
2019-05-12T07:22:58.804Z,9.80
2019-05-12T07:25:44.562Z,9.90
2019-05-12T07:28:30.317Z,9.90
2019-05-12T07:31:16.697Z,9.90
2019-05-12T07:34:04.494Z,10.00
2019-05-12T07:36:49.716Z,10.20
2019-05-12T07:39:44.527Z,10.30
2019-05-12T07:42:31.466Z,10.40
2019-05-12T07:45:16.522Z,10.60
2019-05-12T07:47:59.524Z,10.70
2019-05-12T07:50:50.274Z,10.80
2019-05-12T07:53:54.585Z,10.90
2019-05-12T07:56:33.518Z,11.00
2019-05-12T07:59:19.003Z,11.10
2019-05-12T08:02:04.038Z,11.10
2019-05-12T08:04:49.387Z,11.30
2019-05-12T08:07:34.354Z,11.40
2019-05-12T08:10:20.190Z,11.50
2019-05-12T08:13:05.474Z,11.70
2019-05-12T08:15:55.641Z,11.70
2019-05-12T08:18:41.032Z,11.70
2019-05-12T08:21:24.338Z,11.60
2019-05-12T08:24:09.190Z,11.50
2019-05-12T08:26:59.529Z,11.40
2019-05-12T08:29:42.840Z,11.40
2019-05-12T08:32:27.983Z,11.40
2019-05-12T08:35:13.998Z,11.30
2019-05-12T08:37:59.029Z,11.40
2019-05-12T08:40:50.929Z,11.50
2019-05-12T08:43:31.088Z,11.80
2019-05-12T08:46:16.295Z,12.00
2019-05-12T08:49:04.807Z,12.10
2019-05-12T08:51:49.631Z,12.20
2019-05-12T08:54:34.477Z,12.20
2019-05-12T08:57:19.622Z,12.20
2019-05-12T09:00:08.595Z,12.20
2019-05-12T09:02:53.944Z,12.20
2019-05-12T09:05:39.010Z,12.40
2019-05-12T09:08:25.047Z,12.40
2019-05-12T09:11:10.098Z,12.60
2019-05-12T09:14:00.446Z,12.70
2019-05-12T09:16:44.028Z,12.80
2019-05-12T09:19:28.905Z,12.80
2019-05-12T09:22:18.552Z,12.80
2019-05-12T09:25:08.224Z,12.90
2019-05-12T09:27:53.754Z,13.00
2019-05-12T09:30:40.085Z,13.10
2019-05-12T09:33:27.635Z,13.30
2019-05-12T09:36:19.843Z,13.40
2019-05-12T09:39:01.402Z,13.50
2019-05-12T09:41:52.123Z,13.60
2019-05-12T09:44:34.531Z,13.70
2019-05-12T09:47:25.251Z,13.70
2019-05-12T09:50:09.806Z,13.80
2019-05-12T09:52:55.640Z,13.90
2019-05-12T09:55:40.558Z,13.90
2019-05-12T09:58:27.821Z,13.90
2019-05-12T10:01:13.922Z,13.80
2019-05-12T10:03:59.367Z,13.70
2019-05-12T10:06:44.490Z,13.50
2019-05-12T10:09:29.622Z,13.40
2019-05-12T10:12:14.189Z,13.30
2019-05-12T10:14:59.264Z,13.30
2019-05-12T10:17:44.144Z,13.40
2019-05-12T10:20:34.130Z,13.60
2019-05-12T10:23:20.616Z,13.90
2019-05-12T10:26:09.929Z,14.00
2019-05-12T10:28:52.514Z,13.90
2019-05-12T10:31:39.307Z,13.80
2019-05-12T10:34:24.122Z,13.70
2019-05-12T10:37:10.089Z,13.80
2019-05-12T10:39:55.120Z,13.80
2019-05-12T10:42:46.115Z,13.90
2019-05-12T10:45:28.786Z,14.00
2019-05-12T10:48:14.218Z,14.20
2019-05-12T10:50:59.195Z,14.30
2019-05-12T10:53:48.731Z,14.60
2019-05-12T10:56:30.936Z,14.80
2019-05-12T10:59:28.982Z,15.00
2019-05-12T11:02:03.492Z,15.10
2019-05-12T11:04:48.537Z,15.20
2019-05-12T11:07:34.088Z,15.20
2019-05-12T11:10:20.231Z,15.30
2019-05-12T11:13:08.459Z,15.30
2019-05-12T11:15:54.382Z,15.40
2019-05-12T11:18:39.633Z,15.60
2019-05-12T11:21:25.266Z,15.70
2019-05-12T11:24:09.878Z,15.60
2019-05-12T11:26:54.738Z,15.50
2019-05-12T11:29:46.317Z,15.40
2019-05-12T11:32:28.739Z,15.20
2019-05-12T11:35:14.403Z,15.00
2019-05-12T11:37:59.459Z,14.80
2019-05-12T11:40:44.412Z,14.70
2019-05-12T11:43:29.889Z,14.60
2019-05-12T11:46:15.129Z,14.40
2019-05-12T11:49:00.263Z,14.30
2019-05-12T11:51:44.997Z,14.20
2019-05-12T11:54:29.993Z,14.30
2019-05-12T11:57:14.744Z,14.50
2019-05-12T12:00:02.167Z,15.40
2019-05-12T12:02:46.441Z,16.20
2019-05-12T12:05:33.892Z,18.30
2019-05-12T12:08:18.963Z,21.10
2019-05-12T12:11:04.005Z,23.70
2019-05-12T12:13:50.418Z,25.60
2019-05-12T12:16:35.594Z,26.80
2019-05-12T12:19:26.199Z,27.50
2019-05-12T12:22:07.555Z,26.20
2019-05-12T12:24:54.279Z,25.20
2019-05-12T12:27:39.169Z,23.90
2019-05-12T12:30:24.113Z,22.30
2019-05-12T12:33:08.952Z,20.50
2019-05-12T12:35:56.775Z,19.20
2019-05-12T12:38:40.632Z,18.40
2019-05-12T12:41:25.494Z,17.90
2019-05-12T12:44:10.269Z,18.00
2019-05-12T12:46:59.817Z,19.60
2019-05-12T12:49:45.225Z,20.60
2019-05-12T12:52:29.047Z,20.80
2019-05-12T12:55:14.112Z,20.50
2019-05-12T12:57:58.920Z,20.70
2019-05-12T13:00:51.314Z,21.00
2019-05-12T13:03:30.859Z,20.30
2019-05-12T13:06:17.388Z,19.60
2019-05-12T13:09:07.985Z,20.00
2019-05-12T13:11:53.662Z,20.00
2019-05-12T13:14:38.455Z,19.60
2019-05-12T13:17:27.299Z,19.50
2019-05-12T13:20:09.966Z,21.00
2019-05-12T13:22:54.982Z,22.40
2019-05-12T13:25:48.412Z,23.60
2019-05-12T13:28:26.549Z,24.50
2019-05-12T13:31:15.756Z,25.60
2019-05-12T13:33:58.522Z,26.40
2019-05-12T13:36:44.001Z,27.00
2019-05-12T13:39:29.175Z,27.60
2019-05-12T13:42:14.081Z,26.90
2019-05-12T13:44:58.806Z,25.00
2019-05-12T13:47:44.064Z,23.20
2019-05-12T13:50:29.120Z,21.50
2019-05-12T13:53:14.366Z,20.30
2019-05-12T13:55:59.401Z,19.60
2019-05-12T13:58:45.923Z,19.00
2019-05-12T14:01:39.641Z,18.40
2019-05-12T14:04:22.303Z,17.90
2019-05-12T14:07:09.227Z,18.70
2019-05-12T14:09:52.136Z,18.70
2019-05-12T14:12:36.909Z,18.80
2019-05-12T14:15:24.618Z,20.40
2019-05-12T14:18:10.434Z,21.80
2019-05-12T14:21:00.221Z,22.30
2019-05-12T14:23:43.629Z,22.20
2019-05-12T14:26:28.525Z,21.70
2019-05-12T14:29:13.804Z,21.10
2019-05-12T14:32:02.408Z,20.70
2019-05-12T14:34:46.014Z,20.20
2019-05-12T14:37:33.487Z,19.80
2019-05-12T14:40:21.318Z,19.40
2019-05-12T14:43:04.903Z,19.10
2019-05-12T14:45:49.861Z,18.70
2019-05-12T14:48:35.024Z,18.60
2019-05-12T14:51:21.129Z,18.30
2019-05-12T14:54:06.069Z,18.00
2019-05-12T14:56:55.743Z,17.60
2019-05-12T14:59:41.101Z,17.40
2019-05-12T15:02:28.202Z,17.20
2019-05-12T15:05:14.041Z,16.90
2019-05-12T15:08:00.514Z,16.60
2019-05-12T15:10:45.947Z,16.50
2019-05-12T15:13:31.280Z,16.40
2019-05-12T15:16:17.236Z,16.30
2019-05-12T15:19:03.439Z,16.30
2019-05-12T15:21:48.345Z,16.30
2019-05-12T15:24:33.702Z,16.20
2019-05-12T15:27:18.635Z,16.10
2019-05-12T15:30:19.047Z,16.10
2019-05-12T15:32:54.418Z,15.90
2019-05-12T15:35:39.559Z,15.80
2019-05-12T15:38:24.804Z,15.80
2019-05-12T15:41:10.584Z,15.70
2019-05-12T15:43:57.055Z,15.70
2019-05-12T15:46:45.983Z,15.60
2019-05-12T15:49:33.667Z,15.50
2019-05-12T15:52:18.802Z,15.50
2019-05-12T15:55:07.168Z,15.40
2019-05-12T15:57:52.119Z,15.40
2019-05-12T16:00:38.479Z,15.40
2019-05-12T16:03:23.977Z,15.30
2019-05-12T16:06:12.471Z,15.40
2019-05-12T16:08:57.611Z,15.30
2019-05-12T16:11:42.686Z,15.20
2019-05-12T16:14:30.620Z,15.20
2019-05-12T16:17:16.882Z,15.30
2019-05-12T16:20:04.150Z,15.30
2019-05-12T16:22:48.794Z,15.30
2019-05-12T16:25:34.215Z,15.40
2019-05-12T16:28:23.434Z,15.30
2019-05-12T16:31:08.616Z,15.20
2019-05-12T16:34:01.036Z,15.20
2019-05-12T16:36:41.140Z,15.20
2019-05-12T16:39:30.509Z,15.20
2019-05-12T16:42:15.197Z,15.30
2019-05-12T16:45:05.921Z,15.30
2019-05-12T16:47:46.742Z,15.30
2019-05-12T16:50:34.294Z,15.40
2019-05-12T16:53:21.846Z,15.40
2019-05-12T16:56:05.442Z,15.50
2019-05-12T16:58:50.082Z,15.50
2019-05-12T17:01:34.823Z,15.60
2019-05-12T17:04:19.691Z,15.60
2019-05-12T17:07:09.803Z,15.60
2019-05-12T17:09:51.299Z,15.60
2019-05-12T17:12:37.017Z,15.60
2019-05-12T17:15:23.551Z,15.50
2019-05-12T17:18:08.937Z,15.50
2019-05-12T17:20:54.568Z,15.40
2019-05-12T17:23:39.840Z,15.30
2019-05-12T17:26:24.562Z,15.20
2019-05-12T17:29:09.469Z,15.20
2019-05-12T17:31:54.470Z,15.10
2019-05-12T17:34:40.382Z,15.10
2019-05-12T17:37:26.293Z,15.00
2019-05-12T17:40:18.526Z,14.90
2019-05-12T17:43:11.766Z,14.70
2019-05-12T17:45:56.821Z,14.50
2019-05-12T17:48:42.709Z,14.40
2019-05-12T17:51:30.902Z,14.20
2019-05-12T17:54:21.763Z,14.10
2019-05-12T17:57:01.201Z,14.00
2019-05-12T17:59:46.508Z,13.90
2019-05-12T18:02:31.287Z,13.80
2019-05-12T18:05:16.162Z,13.60
2019-05-12T18:08:00.865Z,13.60
2019-05-12T18:10:47.926Z,13.50
2019-05-12T18:13:34.397Z,13.40
2019-05-12T18:16:22.062Z,13.30
2019-05-12T18:19:09.127Z,13.20
2019-05-12T18:21:54.887Z,13.10
2019-05-12T18:24:40.999Z,13.00
2019-05-12T18:27:27.984Z,13.00
2019-05-12T18:30:16.625Z,12.90
2019-05-12T18:33:04.314Z,12.80
2019-05-12T18:35:47.580Z,12.70
2019-05-12T18:38:35.183Z,12.70
2019-05-12T18:41:19.491Z,12.60
2019-05-12T18:44:04.640Z,12.60
2019-05-12T18:46:49.948Z,12.60
2019-05-12T18:49:35.045Z,12.50
2019-05-12T18:52:19.795Z,12.50
2019-05-12T18:55:05.502Z,12.50
2019-05-12T18:57:50.203Z,12.40
2019-05-12T19:00:35.132Z,12.40
2019-05-12T19:03:20.734Z,12.30
2019-05-12T19:06:05.497Z,12.30
2019-05-12T19:08:50.328Z,12.20
2019-05-12T19:11:41.673Z,12.20
2019-05-12T19:14:22.852Z,12.10
2019-05-12T19:17:07.980Z,12.10
2019-05-12T19:19:59.645Z,12.00
2019-05-12T19:22:39.605Z,12.00
2019-05-12T19:25:30.218Z,11.90
2019-05-12T19:28:13.560Z,11.90
2019-05-12T19:31:01.015Z,11.80
2019-05-12T19:33:56.678Z,11.70
2019-05-12T19:36:38.126Z,11.70
2019-05-12T19:39:19.741Z,11.60
2019-05-12T19:42:04.639Z,11.60
2019-05-12T19:44:49.725Z,11.50
2019-05-12T19:47:38.243Z,11.50
2019-05-12T19:50:21.163Z,11.40
2019-05-12T19:53:06.065Z,11.40
2019-05-12T19:55:51.138Z,11.40
2019-05-12T19:58:35.996Z,11.40
2019-05-12T20:01:26.018Z,11.30
2019-05-12T20:04:07.646Z,11.20
2019-05-12T20:06:54.450Z,11.20
2019-05-12T20:09:39.587Z,11.10
2019-05-12T20:12:24.478Z,11.10
2019-05-12T20:15:10.094Z,11.10
2019-05-12T20:17:54.883Z,11.00
2019-05-12T20:20:43.984Z,11.00
2019-05-12T20:23:26.438Z,10.90
2019-05-12T20:26:11.582Z,10.90
2019-05-12T20:28:56.715Z,10.80
2019-05-12T20:31:47.083Z,10.80
2019-05-12T20:34:28.304Z,10.70
2019-05-12T20:37:16.677Z,10.70
2019-05-12T20:40:05.099Z,10.60
2019-05-12T20:43:07.328Z,10.60
2019-05-12T20:45:40.834Z,10.50
2019-05-12T20:48:26.529Z,10.40
2019-05-12T20:51:15.407Z,10.40
2019-05-12T20:53:56.702Z,10.30
2019-05-12T20:56:43.432Z,10.30
2019-05-12T20:59:28.692Z,10.30
2019-05-12T21:02:14.198Z,10.20
2019-05-12T21:05:01.349Z,10.10
2019-05-12T21:07:46.128Z,10.10
2019-05-12T21:10:31.070Z,10.10
2019-05-12T21:13:20.419Z,10.00
2019-05-12T21:16:15.744Z,10.00
2019-05-12T21:18:55.921Z,9.90
2019-05-12T21:21:38.385Z,9.80
2019-05-12T21:24:24.451Z,9.80
2019-05-12T21:27:14.528Z,9.80
2019-05-12T21:30:00.586Z,9.70
2019-05-12T21:32:47.370Z,9.70
2019-05-12T21:35:31.735Z,9.70
2019-05-12T21:38:18.896Z,9.70
2019-05-12T21:41:07.736Z,9.60
2019-05-12T21:43:50.961Z,9.50
2019-05-12T21:46:38.309Z,9.40
2019-05-12T21:49:25.167Z,9.40
2019-05-12T21:52:09.248Z,9.30
2019-05-12T21:54:55.595Z,9.20
2019-05-12T21:57:43.558Z,9.20
2019-05-12T22:00:45.032Z,9.10
2019-05-12T22:03:29.875Z,9.00
2019-05-12T22:06:21.092Z,9.00
2019-05-12T22:09:02.922Z,8.90
2019-05-12T22:11:51.446Z,8.90
2019-05-12T22:14:36.534Z,8.80
2019-05-12T22:17:20.856Z,8.80
2019-05-12T22:20:14.439Z,8.70
2019-05-12T22:22:52.084Z,8.60
2019-05-12T22:25:39.499Z,8.60
2019-05-12T22:28:24.055Z,8.60
2019-05-12T22:31:08.620Z,8.50
2019-05-12T22:33:56.235Z,8.50
2019-05-12T22:36:45.460Z,8.40
2019-05-12T22:39:26.257Z,8.40
2019-05-12T22:42:11.463Z,8.40
2019-05-12T22:45:01.528Z,8.30
2019-05-12T22:47:49.336Z,8.30
2019-05-12T22:50:32.954Z,8.30
2019-05-12T22:53:19.446Z,8.20
2019-05-12T22:56:12.220Z,8.10
2019-05-12T22:59:00.038Z,8.10
2019-05-12T23:01:41.597Z,8.00
2019-05-12T23:04:35.374Z,7.90
2019-05-12T23:07:18.630Z,7.90
2019-05-12T23:10:00.677Z,7.80
2019-05-12T23:12:50.161Z,7.80
2019-05-12T23:15:38.782Z,7.80
2019-05-12T23:18:28.608Z,7.70
2019-05-12T23:21:15.839Z,7.70
2019-05-12T23:23:57.508Z,7.60
2019-05-12T23:26:43.271Z,7.60
2019-05-12T23:29:30.933Z,7.60
2019-05-12T23:32:15.211Z,7.60
2019-05-12T23:35:00.075Z,7.60
2019-05-12T23:37:44.819Z,7.50
2019-05-12T23:40:29.692Z,7.50
2019-05-12T23:43:14.726Z,7.50
2019-05-12T23:45:59.851Z,7.40
2019-05-12T23:48:44.878Z,7.40
2019-05-12T23:51:29.599Z,7.30
2019-05-12T23:54:14.663Z,7.30
2019-05-12T23:56:59.614Z,7.20
2019-05-12T23:59:44.457Z,7.20
